createdAt,value
2024-03-09T00:04:53.000Z,12.43
2024-03-09T00:14:59.918Z,12.17
2024-03-09T00:18:00.640Z,11.67
2024-03-09T00:24:03.315Z,11.00
2024-03-09T00:36:44.498Z,11.33
2024-03-09T00:40:39.500Z,11.13
2024-03-09T00:44:46.300Z,10.33
2024-03-09T00:47:15.732Z,11.17
2024-03-09T00:49:46.075Z,11.03
2024-03-09T00:52:15.710Z,11.33
2024-03-09T00:54:45.800Z,11.30
2024-03-09T00:57:17.386Z,10.80
2024-03-09T01:00:17.491Z,10.80
2024-03-09T01:02:54.733Z,11.07
2024-03-09T01:05:28.204Z,10.53
2024-03-09T01:07:58.644Z,11.10
2024-03-09T01:10:30.054Z,10.13
2024-03-09T01:13:10.248Z,10.80
2024-03-09T01:15:45.400Z,11.37
2024-03-09T01:18:21.546Z,11.53
2024-03-09T01:20:50.811Z,10.13
2024-03-09T01:23:19.181Z,10.63
2024-03-09T01:25:55.420Z,10.17
2024-03-09T01:28:42.546Z,10.17
2024-03-09T01:42:33.591Z,10.53
2024-03-09T01:45:10.061Z,10.43
2024-03-09T01:47:54.152Z,10.30
2024-03-09T01:50:42.358Z,10.63
2024-03-09T01:56:27.152Z,10.93
2024-03-09T01:59:22.114Z,11.17
2024-03-09T02:02:04.239Z,12.20
2024-03-09T02:07:47.442Z,12.43
2024-03-09T02:10:40.677Z,12.97
2024-03-09T02:13:33.946Z,12.10
2024-03-09T02:17:06.622Z,12.10
2024-03-09T02:20:27.413Z,11.70
2024-03-09T02:23:33.510Z,12.40
2024-03-09T02:29:32.307Z,12.90
2024-03-09T02:32:05.752Z,13.33
2024-03-09T02:34:39.025Z,15.10
2024-03-09T02:37:17.942Z,15.67
2024-03-09T02:39:49.166Z,13.53
2024-03-09T02:42:20.522Z,14.30
2024-03-09T02:56:34.167Z,15.43
2024-03-09T02:59:03.816Z,15.40
2024-03-09T03:01:32.049Z,15.20
2024-03-09T03:03:59.994Z,15.33
2024-03-09T03:06:29.937Z,15.07
2024-03-09T03:09:00.704Z,14.90
2024-03-09T03:11:29.698Z,15.17
2024-03-09T03:13:58.368Z,15.57
2024-03-09T03:16:29.608Z,14.17
2024-03-09T03:18:58.409Z,14.83
2024-03-09T03:21:26.997Z,15.00
2024-03-09T03:23:59.429Z,14.30
2024-03-09T03:26:32.559Z,14.17
2024-03-09T03:29:03.746Z,15.47
2024-03-09T03:31:38.634Z,13.97
2024-03-09T03:35:08.187Z,14.57
2024-03-09T03:41:26.067Z,13.60
2024-03-09T03:43:56.625Z,14.07
2024-03-09T03:46:27.777Z,13.53
2024-03-09T03:48:59.295Z,13.90
2024-03-09T03:51:29.077Z,14.13
2024-03-09T03:53:59.571Z,14.03
2024-03-09T03:56:33.967Z,14.03
2024-03-09T03:59:04.838Z,14.07
2024-03-09T04:01:34.549Z,13.77
2024-03-09T04:04:04.720Z,13.80
2024-03-09T04:06:40.546Z,14.73
2024-03-09T04:09:14.906Z,15.37
2024-03-09T04:11:46.403Z,14.77
2024-03-09T04:14:15.382Z,14.43
2024-03-09T04:16:54.266Z,14.70
2024-03-09T04:19:26.757Z,15.00
2024-03-09T04:21:55.848Z,14.27
2024-03-09T04:24:34.384Z,14.90
2024-03-09T04:27:04.258Z,14.50
2024-03-09T04:29:37.539Z,13.97
2024-03-09T04:32:08.864Z,14.63
2024-03-09T04:34:44.215Z,14.10
2024-03-09T04:37:34.248Z,15.83
2024-03-09T04:40:20.121Z,14.87
2024-03-09T04:42:58.884Z,15.43
2024-03-09T04:49:00.345Z,15.97
2024-03-09T04:51:30.382Z,16.37
2024-03-09T04:53:58.488Z,16.87
2024-03-09T04:56:26.652Z,17.33
2024-03-09T04:58:54.780Z,16.87
2024-03-09T05:01:22.931Z,17.93
2024-03-09T05:03:53.236Z,16.70
2024-03-09T05:06:23.825Z,17.30
2024-03-09T05:08:58.565Z,16.70
2024-03-09T05:11:29.480Z,16.63
2024-03-09T05:13:58.448Z,17.27
2024-03-09T05:16:34.365Z,18.00
2024-03-09T05:19:09.342Z,18.60
2024-03-09T05:21:43.702Z,17.97
2024-03-09T05:24:27.333Z,17.83
2024-03-09T05:27:10.513Z,18.87
2024-03-09T05:29:41.860Z,19.47
2024-03-09T05:32:11.906Z,19.20
2024-03-09T05:45:41.166Z,18.27
2024-03-09T05:48:12.267Z,20.17
2024-03-09T05:51:12.055Z,19.47
2024-03-09T06:09:36.789Z,20.80
2024-03-09T06:22:53.705Z,19.63
2024-03-09T06:25:48.432Z,20.03
2024-03-09T06:28:49.784Z,19.50
2024-03-09T06:31:45.251Z,19.80
2024-03-09T06:34:16.806Z,20.53
2024-03-09T06:37:03.550Z,19.60
2024-03-09T06:39:54.997Z,19.40
2024-03-09T06:42:38.099Z,18.93
2024-03-09T06:45:16.284Z,19.97
2024-03-09T06:48:00.292Z,20.67
2024-03-09T06:50:33.463Z,18.40
2024-03-09T06:53:02.189Z,19.03
2024-03-09T06:55:32.293Z,19.40
2024-03-09T06:58:05.177Z,20.30
2024-03-09T07:00:36.813Z,19.37
2024-03-09T07:03:21.487Z,18.30
2024-03-09T07:05:58.273Z,20.73
2024-03-09T07:08:29.262Z,19.57
2024-03-09T07:11:06.145Z,18.70
2024-03-09T07:13:39.089Z,18.90
2024-03-09T07:16:10.097Z,19.67
2024-03-09T07:18:50.318Z,20.63
2024-03-09T07:21:34.637Z,20.57
2024-03-09T07:24:04.101Z,19.87
2024-03-09T07:26:32.776Z,20.13
2024-03-09T07:29:06.779Z,19.57
2024-03-09T07:32:03.854Z,19.17
2024-03-09T07:35:02.362Z,18.63
2024-03-09T07:37:49.630Z,17.17
2024-03-09T07:47:40.020Z,19.00
2024-03-09T07:50:17.817Z,17.77
2024-03-09T07:53:24.450Z,16.97
2024-03-09T07:56:03.978Z,15.80
2024-03-09T07:58:33.200Z,14.93
2024-03-09T08:01:22.275Z,14.10
2024-03-09T08:04:08.886Z,15.73
2024-03-09T08:07:05.532Z,16.30
2024-03-09T08:09:52.114Z,14.27
2024-03-09T08:12:23.723Z,13.60
2024-03-09T08:14:55.691Z,12.73
2024-03-09T08:17:42.792Z,15.07
2024-03-09T08:20:24.134Z,14.83
2024-03-09T08:22:57.016Z,14.63
2024-03-09T08:25:31.166Z,10.33
2024-03-09T08:28:04.830Z,12.33
2024-03-09T08:30:44.104Z,11.67
2024-03-09T08:33:21.996Z,11.70
2024-03-09T08:35:57.335Z,12.00
2024-03-09T08:38:26.187Z,11.43
2024-03-09T08:41:04.092Z,10.30
2024-03-09T08:43:33.380Z,9.20
2024-03-09T08:46:08.847Z,11.00
2024-03-09T08:48:37.425Z,9.27
2024-03-09T08:51:09.187Z,12.47
2024-03-09T08:53:37.393Z,11.60
2024-03-09T08:56:06.231Z,12.10
2024-03-09T08:58:36.380Z,10.57
2024-03-09T09:01:07.506Z,11.03
2024-03-09T09:03:42.213Z,10.90
2024-03-09T09:06:29.395Z,9.30
2024-03-09T09:08:59.408Z,9.37
2024-03-09T09:11:29.791Z,9.07
2024-03-09T09:13:59.318Z,10.40
2024-03-09T09:16:28.298Z,9.00
2024-03-09T09:18:59.803Z,9.70
2024-03-09T09:21:31.678Z,11.00
2024-03-09T09:24:03.001Z,9.83
2024-03-09T09:26:31.553Z,8.87
2024-03-09T09:29:01.386Z,9.57
2024-03-09T09:31:33.771Z,9.17
2024-03-09T09:34:09.936Z,10.13
2024-03-09T09:36:42.223Z,12.40
2024-03-09T09:39:15.193Z,9.67
2024-03-09T09:41:46.474Z,10.17
2024-03-09T09:44:18.739Z,9.80
2024-03-09T09:46:46.887Z,8.80
2024-03-09T09:49:16.573Z,9.30
2024-03-09T09:51:49.166Z,10.00
2024-03-09T09:54:17.805Z,10.00
2024-03-09T09:56:47.759Z,10.07
2024-03-09T09:59:15.969Z,9.77
2024-03-09T10:01:44.520Z,8.90
2024-03-09T10:04:13.234Z,9.20
2024-03-09T10:06:41.571Z,9.07
2024-03-09T10:09:11.397Z,9.20
2024-03-09T10:11:39.726Z,9.63
2024-03-09T10:14:09.919Z,9.43
2024-03-09T10:16:41.313Z,8.57
2024-03-09T10:19:09.992Z,9.00
2024-03-09T10:21:39.958Z,9.90
2024-03-09T10:24:10.768Z,9.47
2024-03-09T10:26:39.024Z,8.80
2024-03-09T10:29:08.505Z,8.87
2024-03-09T10:31:40.872Z,9.83
2024-03-09T10:34:11.446Z,9.83
2024-03-09T10:36:41.109Z,8.90
2024-03-09T10:39:21.220Z,9.90
2024-03-09T10:41:51.054Z,8.80
2024-03-09T10:44:19.554Z,9.20
2024-03-09T10:46:49.503Z,9.18
2024-03-09T10:49:22.469Z,9.95
2024-03-09T10:51:54.173Z,9.57
2024-03-09T10:54:32.654Z,8.90
2024-03-09T10:57:04.292Z,9.33
2024-03-09T10:59:32.881Z,10.10
2024-03-09T11:02:03.600Z,9.48
2024-03-09T11:04:33.159Z,9.85
2024-03-09T11:07:01.760Z,10.18
2024-03-09T11:09:33.038Z,10.30
2024-03-09T11:12:03.028Z,9.63
2024-03-09T11:14:34.456Z,9.52
2024-03-09T11:17:06.607Z,9.95
2024-03-09T11:19:34.929Z,10.25
2024-03-09T11:22:05.124Z,9.82
2024-03-09T11:24:41.438Z,10.43
2024-03-09T11:27:10.129Z,9.93
2024-03-09T11:29:41.583Z,10.60
2024-03-09T11:32:13.744Z,11.15
2024-03-09T11:34:43.015Z,10.40
2024-03-09T11:37:14.733Z,10.60
2024-03-09T11:39:48.334Z,10.63
2024-03-09T11:42:19.831Z,10.27
2024-03-09T11:44:47.960Z,9.90
2024-03-09T11:47:17.932Z,10.48
2024-03-09T11:49:48.375Z,12.95
2024-03-09T11:52:16.742Z,11.50
2024-03-09T11:54:50.709Z,9.73
2024-03-09T11:57:18.863Z,9.77
2024-03-09T11:59:47.056Z,9.93
2024-03-09T12:02:16.710Z,10.82
2024-03-09T12:04:48.043Z,10.20
2024-03-09T12:07:17.783Z,9.90
2024-03-09T12:09:50.345Z,10.15
2024-03-09T12:12:18.629Z,11.05
2024-03-09T12:14:48.073Z,10.70
2024-03-09T12:17:17.444Z,11.35
2024-03-09T12:19:49.118Z,10.57
2024-03-09T12:22:20.889Z,10.98
2024-03-09T12:24:50.826Z,11.43
2024-03-09T12:27:21.431Z,10.95
2024-03-09T12:29:50.030Z,11.45
2024-03-09T12:32:21.183Z,10.82
2024-03-09T12:34:51.549Z,10.65
2024-03-09T12:37:26.761Z,10.27
2024-03-09T12:40:12.801Z,12.20
2024-03-09T12:42:45.168Z,10.37
2024-03-09T12:45:23.724Z,11.27
2024-03-09T12:47:54.986Z,10.20
2024-03-09T12:50:25.377Z,11.20
2024-03-09T12:52:54.463Z,10.63
2024-03-09T12:55:26.501Z,11.33
2024-03-09T12:57:55.638Z,10.93
2024-03-09T13:00:26.292Z,10.50
2024-03-09T13:02:54.522Z,9.97
2024-03-09T13:05:24.161Z,10.83
2024-03-09T13:07:53.982Z,11.20
2024-03-09T13:10:26.274Z,9.90
2024-03-09T13:12:54.542Z,10.60
2024-03-09T13:15:26.637Z,10.73
2024-03-09T13:17:57.953Z,9.97
2024-03-09T13:20:31.789Z,10.87
2024-03-09T13:23:03.151Z,10.80
2024-03-09T13:25:35.920Z,10.13
2024-03-09T13:28:08.296Z,10.20
2024-03-09T13:30:40.402Z,10.67
2024-03-09T13:33:11.454Z,10.83
2024-03-09T13:35:39.675Z,10.90
2024-03-09T13:38:07.811Z,10.23
2024-03-09T13:40:37.418Z,9.47
2024-03-09T13:43:06.705Z,9.43
2024-03-09T13:45:35.121Z,9.30
2024-03-09T13:48:09.557Z,10.20
2024-03-09T13:50:42.739Z,8.73
2024-03-09T13:53:12.278Z,10.43
2024-03-09T13:55:41.975Z,12.53
2024-03-09T13:58:10.364Z,9.90
2024-03-09T14:00:39.281Z,9.33
2024-03-09T14:03:08.799Z,11.77
2024-03-09T14:05:39.740Z,10.63
2024-03-09T14:08:09.839Z,13.33
2024-03-09T14:10:40.114Z,12.37
2024-03-09T14:13:10.375Z,12.87
2024-03-09T14:15:42.978Z,12.27
2024-03-09T14:18:17.290Z,10.40
2024-03-09T14:20:48.113Z,9.90
2024-03-09T14:23:23.594Z,9.37
2024-03-09T14:25:54.134Z,9.33
2024-03-09T14:28:25.657Z,9.93
2024-03-09T14:31:01.790Z,9.83
2024-03-09T14:33:30.544Z,10.20
2024-03-09T14:35:59.132Z,11.23
2024-03-09T14:38:27.747Z,9.93
2024-03-09T14:40:56.077Z,9.60
2024-03-09T14:43:27.492Z,9.70
2024-03-09T14:45:56.062Z,9.73
2024-03-09T14:48:28.957Z,9.77
2024-03-09T14:51:11.118Z,9.20
2024-03-09T14:53:40.994Z,9.87
2024-03-09T14:56:16.898Z,8.87
2024-03-09T14:59:09.287Z,12.13
2024-03-09T15:01:40.833Z,12.20
2024-03-09T15:11:01.810Z,11.30
2024-03-09T15:17:18.140Z,11.40
2024-03-09T15:25:32.295Z,11.07
2024-03-09T15:28:13.616Z,11.17
2024-03-09T15:31:25.812Z,11.43
2024-03-09T15:34:21.428Z,10.40
2024-03-09T15:36:57.075Z,11.03
2024-03-09T15:39:33.944Z,10.60
2024-03-09T15:42:20.542Z,10.03
2024-03-09T15:45:02.935Z,10.50
2024-03-09T15:47:41.149Z,10.80
2024-03-09T15:50:29.737Z,9.97
2024-03-09T15:53:00.865Z,10.10
2024-03-09T16:04:30.706Z,11.87
2024-03-09T16:07:39.963Z,11.63
2024-03-09T16:10:15.008Z,10.53
2024-03-09T16:12:54.725Z,12.17
2024-03-09T16:16:24.747Z,11.03
2024-03-09T16:19:02.730Z,12.27
2024-03-09T16:21:45.922Z,11.17
2024-03-09T16:24:40.606Z,12.57
2024-03-09T16:27:41.600Z,12.80
2024-03-09T16:33:31.025Z,13.53
2024-03-09T16:36:26.737Z,15.83
2024-03-09T16:39:14.745Z,16.70
2024-03-09T16:45:01.504Z,18.27
2024-03-09T16:50:42.902Z,17.40
2024-03-09T16:53:35.473Z,17.70
2024-03-09T16:56:19.502Z,18.03
2024-03-09T16:59:18.141Z,17.93
2024-03-09T17:02:00.491Z,16.83
2024-03-09T17:05:05.333Z,17.63
2024-03-09T17:14:20.713Z,19.53
2024-03-09T17:17:04.586Z,20.00
2024-03-09T17:19:47.994Z,19.43
2024-03-09T17:26:21.028Z,20.40
2024-03-09T17:29:01.656Z,20.37
2024-03-09T17:31:53.352Z,21.60
2024-03-09T17:34:22.358Z,22.07
2024-03-09T17:37:00.518Z,20.27
2024-03-09T17:39:49.826Z,21.83
2024-03-09T17:42:19.512Z,21.27
2024-03-09T17:44:56.436Z,22.07
2024-03-09T17:47:43.907Z,20.33
2024-03-09T17:50:18.839Z,22.37
2024-03-09T17:52:56.554Z,19.80
2024-03-09T17:55:45.900Z,21.00
2024-03-09T17:58:18.852Z,21.10
2024-03-09T18:01:01.405Z,19.57
2024-03-09T18:03:45.960Z,19.77
2024-03-09T18:06:22.990Z,21.00
2024-03-09T18:09:05.052Z,20.20
2024-03-09T18:11:35.724Z,21.60
2024-03-09T18:14:14.924Z,21.03
2024-03-09T18:16:54.431Z,22.73
2024-03-09T18:19:33.519Z,21.83
2024-03-09T18:22:08.688Z,21.63
2024-03-09T18:24:45.740Z,20.57
2024-03-09T18:27:21.668Z,21.43
2024-03-09T18:29:52.397Z,21.20
2024-03-09T18:32:30.414Z,21.33
2024-03-09T18:35:10.108Z,20.73
2024-03-09T18:37:39.264Z,22.07
2024-03-09T18:40:15.541Z,19.63
2024-03-09T18:42:58.104Z,21.80
2024-03-09T18:45:57.187Z,20.57
2024-03-09T18:48:40.171Z,21.23
2024-03-09T18:51:41.268Z,22.37
2024-03-09T18:54:12.395Z,21.50
2024-03-09T18:56:42.731Z,20.20
2024-03-09T18:59:12.485Z,21.67
2024-03-09T19:01:40.867Z,21.27
2024-03-09T19:04:17.936Z,21.60
2024-03-09T19:06:53.352Z,20.87
2024-03-09T19:09:30.946Z,19.93
2024-03-09T19:12:10.780Z,20.57
2024-03-09T19:14:47.762Z,20.73
2024-03-09T19:17:19.476Z,19.90
2024-03-09T19:19:49.932Z,20.67
2024-03-09T19:22:20.816Z,22.90
2024-03-09T19:24:49.324Z,20.80
2024-03-09T19:27:19.030Z,21.23
2024-03-09T19:29:56.712Z,20.63
2024-03-09T19:32:35.147Z,22.37
2024-03-09T19:35:11.697Z,22.13
2024-03-09T19:37:47.829Z,21.63
2024-03-09T19:40:18.497Z,23.43
2024-03-09T19:42:48.146Z,22.83
2024-03-09T19:45:19.652Z,21.77
2024-03-09T19:47:50.315Z,22.13
2024-03-09T19:50:22.043Z,21.63
2024-03-09T19:52:53.507Z,22.80
2024-03-09T19:55:27.210Z,22.00
2024-03-09T19:57:56.687Z,22.93
2024-03-09T20:00:30.014Z,22.97
2024-03-09T20:03:00.741Z,20.97
2024-03-09T20:05:34.413Z,21.67
2024-03-09T20:08:18.952Z,22.63
2024-03-09T20:11:09.044Z,22.20
2024-03-09T20:13:56.975Z,22.97
2024-03-09T20:16:34.097Z,23.47
2024-03-09T20:22:21.418Z,23.70
2024-03-09T20:25:09.271Z,22.47
2024-03-09T20:27:48.282Z,22.77
2024-03-09T20:30:27.219Z,22.97
2024-03-09T20:32:57.348Z,24.60
2024-03-09T20:35:34.270Z,23.10
2024-03-09T20:38:16.935Z,22.83
2024-03-09T20:41:16.679Z,24.57
2024-03-09T20:43:57.291Z,24.67
2024-03-09T20:46:35.693Z,24.10
2024-03-09T20:49:18.709Z,24.87
2024-03-09T20:54:46.647Z,24.13
2024-03-09T20:57:24.733Z,23.73
2024-03-09T20:59:58.182Z,21.93
2024-03-09T21:02:36.542Z,23.33
2024-03-09T21:05:19.212Z,24.13
2024-03-09T21:07:59.989Z,21.93
2024-03-09T21:11:20.899Z,20.93
2024-03-09T21:14:03.008Z,21.73
2024-03-09T21:19:30.441Z,21.87
2024-03-09T21:22:00.874Z,22.33
2024-03-09T21:24:30.663Z,20.60
2024-03-09T21:27:02.966Z,21.83
2024-03-09T21:29:51.348Z,23.07
2024-03-09T21:32:37.089Z,21.13
2024-03-09T21:35:18.291Z,22.80
2024-03-09T21:38:21.707Z,21.67
2024-03-09T21:44:16.905Z,20.63
2024-03-09T21:46:49.500Z,19.53
2024-03-09T21:49:18.754Z,19.20
2024-03-09T21:51:55.391Z,19.93
2024-03-09T21:54:26.030Z,20.67
2024-03-09T21:56:54.291Z,19.93
2024-03-09T21:59:26.544Z,19.50
2024-03-09T22:02:00.223Z,20.93
2024-03-09T22:04:44.657Z,20.63
2024-03-09T22:07:44.482Z,19.13
2024-03-09T22:10:29.040Z,20.77
2024-03-09T22:12:59.316Z,21.00
2024-03-09T22:15:31.973Z,19.93
2024-03-09T22:18:30.586Z,19.57
2024-03-09T22:21:20.580Z,22.30
2024-03-09T22:23:58.122Z,21.70
2024-03-09T22:26:51.682Z,21.47
2024-03-09T22:29:33.550Z,21.20
2024-03-09T22:32:10.929Z,21.87
2024-03-09T22:37:43.072Z,20.73
2024-03-09T22:40:28.914Z,22.03
2024-03-09T22:43:13.831Z,22.00
2024-03-09T22:45:54.243Z,20.83
2024-03-09T22:48:38.044Z,20.97
2024-03-09T22:54:27.740Z,21.27
2024-03-09T22:57:19.266Z,22.03
2024-03-09T23:02:36.781Z,23.07
2024-03-09T23:05:26.035Z,20.67
2024-03-09T23:08:14.724Z,20.50
2024-03-09T23:10:58.010Z,20.27
2024-03-09T23:13:32.581Z,22.20
2024-03-09T23:16:15.592Z,21.23
2024-03-09T23:18:47.110Z,22.20
2024-03-09T23:21:30.720Z,22.37
2024-03-09T23:24:17.103Z,22.33
2024-03-09T23:29:21.264Z,22.63
2024-03-09T23:32:04.797Z,21.90
2024-03-09T23:34:40.098Z,21.13
2024-03-09T23:37:37.100Z,22.13
2024-03-09T23:43:22.246Z,22.20
2024-03-09T23:49:08.610Z,21.60
2024-03-09T23:55:25.333Z,21.57
2024-03-09T23:58:21.116Z,22.67
